Time;durP1;ratioP1;P1;durP2;ratioP2;P2;SDS_P1;SDS_P2;PMS_P1;PMS_P2;Temp;Humidity;BMP_temperature;BMP_pressure;BME280_temperature;BME280_humidity;BME280_pressure;Samples;Min_cycle;Max_cycle;Signal;HPM_P1;HPM_P2
2023/01/08 00:01:21;;;;;;;13.80;5.40;;;7.50;99.90;;;;;;5052812;28;20472;-72
2023/01/08 00:03:47;;;;;;;9.33;4.60;;;7.40;99.90;;;;;;5054306;28;20289;-72
2023/01/08 00:06:18;;;;;;;9.60;5.83;;;7.40;99.90;;;;;;5053533;28;20295;-73
2023/01/08 00:08:44;;;;;;;21.47;16.43;;;7.30;99.90;;;;;;5053192;28;20214;-72
2023/01/08 00:11:10;;;;;;;47.77;30.77;;;7.10;99.90;;;;;;5052476;28;20949;-73
2023/01/08 00:13:36;;;;;;;17.00;7.00;;;7.00;99.90;;;;;;5069500;28;20951;-72
2023/01/08 00:16:10;;;;;;;10.60;6.30;;;7.00;99.90;;;;;;5071677;28;20848;-72
2023/01/08 00:18:36;;;;;;;12.30;7.67;;;6.90;99.90;;;;;;5052575;28;20465;-72
2023/01/08 00:21:02;;;;;;;12.23;7.20;;;6.80;99.90;;;;;;5053041;28;20440;-72
2023/01/08 00:23:28;;;;;;;15.40;9.20;;;6.70;99.90;;;;;;5054412;28;20247;-72
2023/01/08 00:25:53;;;;;;;21.07;12.73;;;6.70;99.90;;;;;;5067930;28;20520;-72
2023/01/08 00:28:22;;;;;;;28.60;14.07;;;6.60;99.90;;;;;;5073051;28;20701;-72
2023/01/08 00:30:48;;;;;;;16.80;9.47;;;6.60;99.90;;;;;;5072452;28;20579;-72
2023/01/08 00:33:14;;;;;;;20.17;11.40;;;6.50;99.90;;;;;;5060936;28;20428;-72
2023/01/08 00:35:40;;;;;;;19.90;9.63;;;6.50;99.90;;;;;;5053448;28;20412;-71
2023/01/08 00:38:06;;;;;;;13.00;8.00;;;6.40;99.90;;;;;;5053502;28;20419;-72
2023/01/08 00:40:33;;;;;;;12.90;9.07;;;6.40;99.90;;;;;;5067720;28;20434;-71
2023/01/08 00:42:58;;;;;;;11.33;7.70;;;6.30;99.90;;;;;;5071343;28;20477;-70
2023/01/08 00:45:24;;;;;;;23.60;13.07;;;6.30;99.90;;;;;;5068407;28;20426;-72
2023/01/08 00:47:49;;;;;;;31.30;17.73;;;6.20;99.90;;;;;;5052745;28;20244;-72
2023/01/08 00:50:15;;;;;;;28.27;16.90;;;6.20;99.90;;;;;;5052014;28;20168;-72
2023/01/08 00:52:41;;;;;;;19.17;11.73;;;6.20;99.90;;;;;;5062935;28;20196;-72
2023/01/08 00:55:07;;;;;;;15.40;10.50;;;6.20;99.90;;;;;;5060479;28;20198;-72
2023/01/08 00:57:36;;;;;;;18.97;11.97;;;6.20;99.90;;;;;;5052554;28;20188;-72
2023/01/08 01:00:04;;;;;;;15.10;12.60;;;6.10;99.90;;;;;;5059090;28;20186;-72
2023/01/08 01:02:30;;;;;;;16.43;10.20;;;6.10;99.90;;;;;;5072421;28;20547;-73
2023/01/08 01:04:55;;;;;;;16.40;10.00;;;6.10;99.90;;;;;;5072916;28;20870;-72
2023/01/08 01:07:21;;;;;;;16.07;10.03;;;6.00;99.90;;;;;;5072821;28;20170;-73
2023/01/08 01:09:46;;;;;;;20.40;9.77;;;6.00;99.90;;;;;;5072516;28;20188;-73
2023/01/08 01:12:12;;;;;;;10.33;6.53;;;6.00;99.90;;;;;;5071926;28;20232;-73
2023/01/08 01:14:37;;;;;;;17.40;8.53;;;6.00;99.90;;;;;;5072441;28;20655;-73
2023/01/08 01:17:03;;;;;;;11.43;7.07;;;6.00;99.90;;;;;;5072821;28;20199;-73
2023/01/08 01:19:29;;;;;;;12.23;7.13;;;5.90;99.90;;;;;;5072645;28;20240;-72
2023/01/08 01:21:54;;;;;;;13.70;7.43;;;5.90;99.90;;;;;;5071839;28;20207;-73
2023/01/08 01:24:23;;;;;;;10.83;6.70;;;6.00;99.90;;;;;;5071597;28;20206;-73
2023/01/08 01:26:50;;;;;;;9.37;5.80;;;5.90;99.90;;;;;;5072193;28;20230;-73
2023/01/08 01:29:15;;;;;;;14.40;6.80;;;5.90;99.90;;;;;;5072036;28;20461;-73
2023/01/08 01:31:41;;;;;;;15.17;7.07;;;5.90;99.90;;;;;;5072083;28;20463;-72
2023/01/08 01:34:06;;;;;;;12.17;7.00;;;5.90;99.90;;;;;;5073337;28;20560;-73
2023/01/08 01:36:31;;;;;;;11.30;5.80;;;5.90;99.90;;;;;;5072118;28;20413;-72
2023/01/08 01:39:01;;;;;;;10.70;6.40;;;5.90;99.90;;;;;;5072193;28;20662;-70
2023/01/08 01:41:34;;;;;;;9.80;5.50;;;5.80;99.90;;;;;;5072803;28;20477;-70
2023/01/08 01:44:37;;;;;;;12.60;5.90;;;5.80;99.90;;;;;;5073497;28;20768;-71
2023/01/08 01:47:11;;;;;;;12.73;6.10;;;5.90;99.90;;;;;;5071984;28;20487;-70
2023/01/08 01:49:38;;;;;;;12.50;6.27;;;5.90;99.90;;;;;;5072295;28;20461;-70
2023/01/08 01:52:06;;;;;;;15.80;6.57;;;6.10;99.90;;;;;;5071484;28;20506;-70
2023/01/08 01:54:34;;;;;;;11.67;6.73;;;6.10;99.90;;;;;;5071832;28;20506;-70
2023/01/08 01:57:00;;;;;;;13.83;7.20;;;6.10;99.90;;;;;;5071679;28;20434;-70
2023/01/08 01:59:26;;;;;;;8.07;5.20;;;6.10;99.90;;;;;;5071955;28;20775;-70
2023/01/08 03:33:01;;;;;;;57.07;7.23;;;6.90;99.90;;;;;;5052794;22;20262;-71
2023/01/08 03:35:28;;;;;;;60.47;7.80;;;6.90;99.90;;;;;;5009481;28;20439;-71
2023/01/08 03:38:03;;;;;;;63.87;7.60;;;6.90;99.90;;;;;;5015404;28;20505;-71
2023/01/08 03:40:39;;;;;;;85.70;16.70;;;6.90;99.90;;;;;;5014757;28;20419;-68
2023/01/08 03:43:05;;;;;;;137.13;111.13;;;6.90;99.90;;;;;;4994841;28;20429;-71
2023/01/08 03:45:31;;;;;;;29.73;7.17;;;6.90;99.90;;;;;;4994246;28;20403;-71
2023/01/08 03:47:59;;;;;;;33.53;7.03;;;6.90;99.90;;;;;;4984208;28;20213;-70
2023/01/08 03:50:28;;;;;;;28.10;7.23;;;6.90;99.90;;;;;;4994365;28;20488;-68
2023/01/08 03:52:53;;;;;;;26.83;6.23;;;6.90;99.90;;;;;;4994244;28;20453;-70
2023/01/08 03:55:19;;;;;;;28.77;6.20;;;6.90;99.90;;;;;;4994575;28;20512;-71
2023/01/08 03:57:44;;;;;;;25.90;6.13;;;6.90;99.90;;;;;;4994852;28;20193;-71
2023/01/08 04:00:10;;;;;;;23.43;5.93;;;6.90;99.90;;;;;;4992964;28;20555;-71
2023/01/08 04:02:36;;;;;;;25.30;5.80;;;6.90;99.90;;;;;;4993686;28;20231;-70
2023/01/08 04:05:01;;;;;;;25.47;6.43;;;6.90;99.90;;;;;;4994603;28;20420;-71
2023/01/08 04:07:27;;;;;;;22.83;6.17;;;7.00;99.90;;;;;;4994324;28;20186;-70
2023/01/08 04:09:53;;;;;;;24.50;5.07;;;7.00;99.90;;;;;;4994512;28;20182;-71
2023/01/08 04:12:18;;;;;;;26.47;5.67;;;7.00;99.90;;;;;;4994056;28;20265;-71
2023/01/08 04:14:44;;;;;;;28.37;5.90;;;7.00;99.90;;;;;;4994669;28;20201;-71
2023/01/08 04:17:11;;;;;;;28.33;4.50;;;7.10;99.90;;;;;;4993582;28;20191;-71
2023/01/08 04:19:36;;;;;;;26.23;4.60;;;7.10;99.90;;;;;;4994377;28;20264;-71
2023/01/08 04:22:02;;;;;;;28.40;5.00;;;7.20;99.90;;;;;;4993746;28;20528;-71
2023/01/08 04:24:27;;;;;;;130.27;16.23;;;7.20;99.90;;;;;;4994099;28;20239;-69
2023/01/08 04:26:53;;;;;;;10.40;4.40;;;7.30;99.90;;;;;;4994243;28;20206;-71
2023/01/08 04:29:18;;;;;;;14.43;3.60;;;7.30;99.90;;;;;;4994024;28;20213;-71
2023/01/08 04:31:44;;;;;;;105.30;92.87;;;7.40;99.90;;;;;;4993199;28;20222;-72
2023/01/08 04:34:09;;;;;;;80.33;53.37;;;7.60;99.90;;;;;;4994013;28;20655;-71
2023/01/08 04:36:35;;;;;;;20.57;3.47;;;7.70;99.90;;;;;;4993874;28;20190;-71
2023/01/08 04:39:00;;;;;;;44.53;5.10;;;7.90;99.90;;;;;;4993951;28;20278;-71
2023/01/08 04:41:26;;;;;;;53.03;33.87;;;8.00;99.90;;;;;;4993323;28;20215;-71
2023/01/08 04:43:51;;;;;;;49.60;3.97;;;8.20;99.90;;;;;;4993655;28;20192;-71
2023/01/08 04:46:17;;;;;;;148.83;135.67;;;8.40;99.90;;;;;;4993445;28;20196;-71
2023/01/08 04:48:42;;;;;;;29.70;2.80;;;8.60;99.90;;;;;;4976453;28;20218;-72
2023/01/08 04:51:08;;;;;;;308.40;287.47;;;8.70;99.90;;;;;;4993122;28;20219;-71
2023/01/08 04:53:35;;;;;;;237.03;218.40;;;8.90;99.90;;;;;;4994029;28;20208;-72
2023/01/08 04:56:06;;;;;;;100.17;91.50;;;9.00;99.90;;;;;;4995040;28;20300;-72
2023/01/08 04:58:33;;;;;;;174.50;161.10;;;9.20;99.90;;;;;;4995306;28;20431;-73
2023/01/08 05:00:58;;;;;;;65.20;44.60;;;9.20;99.90;;;;;;4994058;28;20464;-72
2023/01/08 05:03:24;;;;;;;126.13;81.10;;;9.30;99.90;;;;;;4992716;28;20490;-72
2023/01/08 05:05:49;;;;;;;112.13;59.30;;;9.30;99.90;;;;;;4993546;28;20184;-72
2023/01/08 05:08:15;;;;;;;80.63;15.30;;;9.30;99.90;;;;;;4993379;28;20215;-71
2023/01/08 05:10:40;;;;;;;64.47;4.97;;;9.40;99.90;;;;;;4992502;28;20182;-72
2023/01/08 05:13:06;;;;;;;54.50;4.27;;;9.40;99.90;;;;;;4992894;28;20666;-72
2023/01/08 05:15:32;;;;;;;45.57;2.60;;;9.40;99.90;;;;;;4993307;28;20185;-71
2023/01/08 05:18:02;;;;;;;34.90;3.07;;;9.40;99.90;;;;;;4993315;28;20189;-71
2023/01/08 05:20:28;;;;;;;32.43;2.50;;;9.40;99.90;;;;;;4993014;28;20734;-71
2023/01/08 05:22:53;;;;;;;30.10;2.57;;;9.40;99.90;;;;;;4992612;28;20457;-72
2023/01/08 05:25:19;;;;;;;291.93;124.57;;;9.40;99.90;;;;;;4993015;28;20190;-71
2023/01/08 05:27:44;;;;;;;63.83;3.20;;;9.40;99.90;;;;;;4993194;28;20235;-71
2023/01/08 05:30:10;;;;;;;87.67;7.17;;;9.50;99.90;;;;;;4992758;28;20565;-71
2023/01/08 05:32:36;;;;;;;83.80;5.53;;;9.50;99.90;;;;;;4992727;28;20639;-72
2023/01/08 05:35:02;;;;;;;171.60;153.43;;;9.50;99.90;;;;;;4992807;28;20495;-71
2023/01/08 05:37:27;;;;;;;93.33;12.03;;;9.50;99.90;;;;;;4992803;28;20317;-71
2023/01/08 05:39:53;;;;;;;89.00;6.50;;;9.50;99.90;;;;;;4992645;28;20185;-71
2023/01/08 05:42:18;;;;;;;89.07;6.90;;;9.50;99.90;;;;;;4992108;28;20205;-72
2023/01/08 05:44:43;;;;;;;125.87;76.80;;;9.50;99.90;;;;;;4992796;28;20175;-71
2023/01/08 05:47:09;;;;;;;83.77;6.37;;;9.50;99.90;;;;;;4992941;28;20176;-72
2023/01/08 05:49:35;;;;;;;100.90;21.20;;;9.50;99.90;;;;;;4992731;28;20708;-72
2023/01/08 05:52:00;;;;;;;92.90;8.93;;;9.50;99.90;;;;;;4991766;28;20201;-71
2023/01/08 05:54:25;;;;;;;393.90;361.83;;;9.40;99.90;;;;;;4992671;28;20256;-72
2023/01/08 05:56:51;;;;;;;105.40;34.83;;;9.40;99.90;;;;;;4992538;28;20260;-72
2023/01/08 05:59:16;;;;;;;160.90;119.73;;;9.30;99.90;;;;;;4992467;28;20183;-72
2023/01/08 06:01:42;;;;;;;177.43;158.30;;;9.30;99.90;;;;;;4991891;28;20201;-72
2023/01/08 06:04:08;;;;;;;241.80;219.37;;;9.20;99.90;;;;;;4992111;28;20602;-72
2023/01/08 06:06:33;;;;;;;202.47;182.47;;;9.20;99.90;;;;;;4992135;28;20206;-72
2023/01/08 06:08:59;;;;;;;202.03;182.13;;;9.10;99.90;;;;;;4992393;28;20242;-72
2023/01/08 06:11:24;;;;;;;206.67;186.20;;;9.10;99.90;;;;;;4991605;28;20214;-72
2023/01/08 06:13:50;;;;;;;159.77;128.10;;;9.10;99.90;;;;;;4992029;28;20193;-72
2023/01/08 06:16:16;;;;;;;137.30;89.13;;;9.10;99.90;;;;;;4984607;28;20269;-72
2023/01/08 06:18:42;;;;;;;132.23;75.77;;;9.10;99.90;;;;;;4984503;28;20684;-72
2023/01/08 06:21:07;;;;;;;166.43;140.20;;;9.10;99.90;;;;;;4991974;28;20447;-70
2023/01/08 06:23:33;;;;;;;121.83;61.87;;;9.10;99.90;;;;;;4991240;28;20187;-71
2023/01/08 06:26:00;;;;;;;109.47;29.97;;;9.00;99.90;;;;;;4992134;28;20212;-72
2023/01/08 06:28:26;;;;;;;98.10;34.70;;;9.00;99.90;;;;;;4991850;28;20316;-71
2023/01/08 06:30:51;;;;;;;98.57;21.87;;;9.10;99.90;;;;;;4991605;28;20890;-71
2023/01/08 06:33:18;;;;;;;117.80;59.80;;;9.20;99.90;;;;;;4991583;28;20282;-71
2023/01/08 06:35:43;;;;;;;91.93;8.33;;;9.20;99.90;;;;;;4991930;28;20188;-71
2023/01/08 06:38:09;;;;;;;95.23;11.77;;;9.20;99.90;;;;;;4992013;28;20433;-71
2023/01/08 06:40:34;;;;;;;231.40;207.87;;;9.30;99.90;;;;;;4992010;28;20192;-71
2023/01/08 06:43:02;;;;;;;204.60;184.07;;;9.30;99.90;;;;;;4991411;28;20650;-71
2023/01/08 06:45:27;;;;;;;271.40;247.33;;;9.30;99.90;;;;;;4991937;28;20279;-71
2023/01/08 06:47:53;;;;;;;285.57;260.67;;;9.30;99.90;;;;;;4991766;28;20970;-71
2023/01/08 06:50:18;;;;;;;344.00;314.00;;;9.30;99.90;;;;;;4991704;28;20264;-71
2023/01/08 06:52:52;;;;;;;244.83;222.57;;;9.40;99.90;;;;;;4991362;28;20201;-72
2023/01/08 06:55:18;;;;;;;242.30;219.50;;;9.40;99.90;;;;;;4991824;28;20213;-71
2023/01/08 06:57:43;;;;;;;273.17;141.57;;;9.40;99.90;;;;;;4991539;28;20434;-72
2023/01/08 07:00:09;;;;;;;34.97;1.00;;;9.50;99.90;;;;;;4991795;28;20597;-72
2023/01/08 07:02:35;;;;;;;12.17;0.80;;;9.50;99.90;;;;;;4991204;28;20200;-71
2023/01/08 07:05:00;;;;;;;16.43;0.80;;;9.50;99.90;;;;;;4991665;28;20469;-70
2023/01/08 07:07:26;;;;;;;17.60;0.90;;;9.50;99.90;;;;;;4991420;28;20185;-70
2023/01/08 07:09:51;;;;;;;17.40;0.83;;;9.60;99.90;;;;;;4991873;28;20179;-70
2023/01/08 07:12:17;;;;;;;174.73;65.60;;;9.60;99.90;;;;;;4991448;28;20197;-70
2023/01/08 07:14:42;;;;;;;20.10;1.20;;;9.60;99.90;;;;;;4991933;28;20198;-70
2023/01/08 07:17:08;;;;;;;25.00;0.80;;;9.60;99.90;;;;;;4991285;28;20668;-70
2023/01/08 07:19:33;;;;;;;273.10;87.10;;;9.60;99.90;;;;;;4992193;28;20191;-71
2023/01/08 07:21:59;;;;;;;27.00;0.80;;;9.60;99.90;;;;;;4991206;28;20209;-71
2023/01/08 07:24:24;;;;;;;29.37;1.00;;;9.50;99.90;;;;;;4991235;28;20182;-71
2023/01/08 07:26:50;;;;;;;29.77;0.90;;;9.50;99.90;;;;;;4992714;28;20804;-71
2023/01/08 07:29:15;;;;;;;24.47;1.20;;;9.50;99.90;;;;;;4990930;28;20258;-70
2023/01/08 07:31:41;;;;;;;27.50;1.07;;;9.50;99.90;;;;;;4990989;28;20539;-70
2023/01/08 07:34:06;;;;;;;30.63;1.00;;;9.50;99.90;;;;;;4991985;28;20248;-70
2023/01/08 07:36:32;;;;;;;34.33;0.90;;;9.50;99.90;;;;;;4994694;28;20667;-71
2023/01/08 07:38:57;;;;;;;32.00;1.20;;;9.40;99.90;;;;;;4994978;28;20190;-70
2023/01/08 07:41:23;;;;;;;28.37;1.03;;;9.30;99.90;;;;;;4994596;28;20467;-70
2023/01/08 07:43:48;;;;;;;34.33;1.10;;;9.30;99.90;;;;;;4994974;28;20560;-70
2023/01/08 07:46:15;;;;;;;37.40;0.90;;;9.30;99.90;;;;;;4995487;28;20183;-70
2023/01/08 07:48:40;;;;;;;35.77;1.00;;;9.20;99.90;;;;;;4995349;28;20638;-71
2023/01/08 07:51:07;;;;;;;40.07;1.00;;;9.20;99.90;;;;;;4995341;28;20493;-70
2023/01/08 07:53:34;;;;;;;42.40;1.13;;;9.10;99.90;;;;;;4994872;28;20569;-71
2023/01/08 07:56:06;;;;;;;30.00;1.60;;;9.10;99.90;;;;;;4994872;28;20457;-70
2023/01/08 07:58:32;;;;;;;43.17;1.00;;;9.10;99.90;;;;;;4994415;28;20950;-70
2023/01/08 08:00:58;;;;;;;43.30;0.97;;;9.10;99.90;;;;;;4994434;28;20437;-71
2023/01/08 08:03:24;;;;;;;46.40;1.20;;;9.10;99.90;;;;;;4993901;28;20552;-70
2023/01/08 08:05:50;;;;;;;43.60;1.10;;;9.00;99.90;;;;;;4994520;28;20244;-70
2023/01/08 08:08:16;;;;;;;167.87;15.67;;;9.00;99.90;;;;;;4994370;28;20252;-71
2023/01/08 08:10:42;;;;;;;50.20;1.00;;;9.00;99.90;;;;;;4994382;28;20923;-70
2023/01/08 08:13:08;;;;;;;139.27;54.33;;;8.90;99.90;;;;;;4993599;28;20584;-70
2023/01/08 08:15:35;;;;;;;10.53;0.83;;;8.90;99.90;;;;;;4994383;28;20424;-70
2023/01/08 08:18:01;;;;;;;11.37;0.70;;;8.90;99.90;;;;;;4994284;28;20418;-71
2023/01/08 08:20:27;;;;;;;12.20;1.00;;;8.90;99.90;;;;;;4994216;28;20432;-71
2023/01/08 08:23:00;;;;;;;13.40;0.90;;;8.90;99.90;;;;;;4993936;28;20448;-71
2023/01/08 08:25:26;;;;;;;11.30;0.93;;;8.80;99.90;;;;;;4993748;28;20194;-71
2023/01/08 08:27:51;;;;;;;9.17;0.90;;;8.80;99.90;;;;;;4994051;28;21022;-70
2023/01/08 08:30:17;;;;;;;9.83;0.90;;;8.80;99.90;;;;;;4994021;28;20182;-71
2023/01/08 08:32:42;;;;;;;9.60;0.80;;;8.80;99.90;;;;;;4993301;28;20771;-71
2023/01/08 08:35:08;;;;;;;4.90;0.77;;;8.80;99.90;;;;;;4993793;28;20191;-70
2023/01/08 08:37:34;;;;;;;1.70;0.80;;;8.80;99.90;;;;;;4993993;28;20171;-71
2023/01/08 08:39:59;;;;;;;3.90;1.80;;;8.90;99.90;;;;;;4993764;28;20187;-71
2023/01/08 08:42:25;;;;;;;2.57;1.30;;;8.90;99.90;;;;;;4993444;28;20203;-71
2023/01/08 08:44:50;;;;;;;2.60;0.90;;;8.90;99.90;;;;;;4993594;28;20188;-71
2023/01/08 08:47:16;;;;;;;2.80;0.87;;;8.90;99.90;;;;;;4992918;28;20190;-71
2023/01/08 08:49:42;;;;;;;3.90;1.20;;;8.90;99.90;;;;;;4993797;28;20240;-71
2023/01/08 08:52:07;;;;;;;5.33;1.43;;;8.90;99.90;;;;;;4993040;28;20472;-71
2023/01/08 08:54:33;;;;;;;3.83;1.73;;;8.90;99.90;;;;;;4993494;28;20546;-71
2023/01/08 08:56:58;;;;;;;3.53;1.03;;;9.00;99.90;;;;;;4993462;28;20229;-70
2023/01/08 08:59:24;;;;;;;3.93;1.50;;;8.90;99.90;;;;;;4993459;28;20193;-71
2023/01/08 09:01:49;;;;;;;3.60;1.13;;;9.00;99.90;;;;;;4993083;28;20205;-71
2023/01/08 09:04:15;;;;;;;2.17;1.00;;;9.00;99.90;;;;;;4993003;28;20194;-70
2023/01/08 09:06:40;;;;;;;2.60;0.90;;;9.00;99.90;;;;;;4989471;28;20248;-72
2023/01/08 09:09:06;;;;;;;2.60;0.90;;;9.00;99.90;;;;;;4972863;28;20218;-71
2023/01/08 09:11:31;;;;;;;2.83;1.00;;;9.00;99.90;;;;;;4972227;28;20590;-73
2023/01/08 09:13:57;;;;;;;2.30;0.80;;;9.10;99.90;;;;;;4986830;28;20202;-70
2023/01/08 09:16:22;;;;;;;2.60;0.90;;;9.10;99.90;;;;;;4991499;28;20214;-72
2023/01/08 09:18:48;;;;;;;4.53;1.43;;;9.10;99.90;;;;;;4992274;28;20770;-71
2023/01/08 09:21:14;;;;;;;4.33;1.77;;;9.20;99.90;;;;;;4991565;28;20262;-71
2023/01/08 09:23:39;;;;;;;6.50;1.97;;;9.20;99.90;;;;;;4991404;28;20282;-71
2023/01/08 09:26:05;;;;;;;4.17;1.10;;;9.30;99.90;;;;;;4991635;28;20206;-72
2023/01/08 09:28:31;;;;;;;5.97;1.10;;;9.30;99.90;;;;;;4991551;28;20707;-71
2023/01/08 09:31:01;;;;;;;4.20;0.80;;;9.30;99.90;;;;;;4991586;28;20220;-71
2023/01/08 09:33:27;;;;;;;5.40;1.47;;;9.30;99.90;;;;;;4990965;28;20735;-71
2023/01/08 09:35:52;;;;;;;104.40;17.20;;;9.30;99.90;;;;;;4991661;28;20457;-71
2023/01/08 09:38:17;;;;;;;224.63;24.63;;;9.30;99.90;;;;;;4991626;28;20247;-71
2023/01/08 09:40:55;;;;;;;9.33;1.07;;;9.40;99.90;;;;;;4991428;28;20215;-71
2023/01/08 09:43:23;;;;;;;6.80;0.70;;;9.40;99.90;;;;;;4990945;28;20226;-71
2023/01/08 09:45:55;;;;;;;6.70;0.87;;;9.50;99.90;;;;;;4991907;28;20879;-71
2023/01/08 09:48:28;;;;;;;6.70;0.90;;;9.50;99.90;;;;;;4991286;28;20823;-69
2023/01/08 09:50:54;;;;;;;8.23;1.20;;;9.40;99.90;;;;;;4991412;28;20474;-70
2023/01/08 09:53:19;;;;;;;6.80;0.90;;;9.50;99.90;;;;;;4990487;28;20923;-70
2023/01/08 09:56:09;;;;;;;7.63;1.10;;;9.50;99.90;;;;;;4991707;28;20195;-71
2023/01/08 09:58:50;;;;;;;7.47;1.67;;;9.50;99.90;;;;;;4990619;28;20212;-70
2023/01/08 10:01:19;;;;;;;7.77;1.00;;;9.50;99.90;;;;;;4982206;28;20450;-69
2023/01/08 10:03:50;;;;;;;22.63;0.97;;;9.50;99.90;;;;;;4982946;28;20458;-71
2023/01/08 10:06:16;;;;;;;19.70;0.90;;;9.50;99.90;;;;;;4990347;28;22138;-69
2023/01/08 10:08:42;;;;;;;21.77;0.90;;;9.50;99.90;;;;;;4991366;28;20504;-70
2023/01/08 10:11:09;;;;;;;20.50;1.20;;;9.50;99.90;;;;;;4990081;28;20446;-69
2023/01/08 10:13:38;;;;;;;20.73;1.10;;;9.50;99.90;;;;;;4990983;28;20281;-70
2023/01/08 10:16:07;;;;;;;23.63;1.90;;;9.60;99.90;;;;;;4990712;28;20642;-70
2023/01/08 10:18:34;;;;;;;22.33;1.20;;;9.60;99.90;;;;;;4990975;28;20473;-71
2023/01/08 10:20:59;;;;;;;19.33;1.43;;;9.60;99.90;;;;;;4990883;28;21027;-72
2023/01/08 10:23:25;;;;;;;20.40;1.70;;;9.60;99.90;;;;;;4990086;28;20537;-71
2023/01/08 10:25:51;;;;;;;21.03;1.00;;;9.70;99.90;;;;;;4991156;28;20687;-71
2023/01/08 10:28:24;;;;;;;22.10;0.87;;;9.70;99.90;;;;;;4991048;28;20250;-72
2023/01/08 10:30:51;;;;;;;17.00;1.07;;;9.70;99.90;;;;;;4990899;28;20434;-72
2023/01/08 10:33:23;;;;;;;168.20;13.47;;;9.70;99.90;;;;;;4990216;28;20446;-71
2023/01/08 10:35:58;;;;;;;37.30;14.67;;;9.70;99.90;;;;;;4976513;28;20475;-72
2023/01/08 10:38:33;;;;;;;32.57;1.10;;;9.80;99.90;;;;;;4983075;28;20914;-71
2023/01/08 10:41:02;;;;;;;32.80;1.23;;;9.80;99.90;;;;;;4990637;28;20442;-72
2023/01/08 10:43:32;;;;;;;35.47;1.00;;;9.80;99.90;;;;;;4990966;28;20476;-73
2023/01/08 10:46:05;;;;;;;33.50;1.10;;;9.80;99.90;;;;;;4989647;28;20465;-72
2023/01/08 10:48:38;;;;;;;33.83;1.07;;;9.90;99.90;;;;;;4971637;28;20475;-72
2023/01/08 10:51:14;;;;;;;34.13;0.97;;;9.90;99.90;;;;;;4972117;28;20555;-70
2023/01/08 10:53:40;;;;;;;36.57;1.40;;;9.90;99.90;;;;;;4990572;28;20537;-72
2023/01/08 10:56:15;;;;;;;32.20;1.23;;;9.90;99.90;;;;;;4990388;28;20482;-71
2023/01/08 10:58:41;;;;;;;35.87;1.60;;;9.90;99.90;;;;;;4991460;28;20446;-72
2023/01/08 11:01:15;;;;;;;35.10;1.40;;;10.00;99.90;;;;;;4990882;28;20536;-71
2023/01/08 11:03:41;;;;;;;29.63;3.17;;;10.00;99.90;;;;;;4990392;28;20450;-71
2023/01/08 11:06:21;;;;;;;28.60;1.17;;;10.10;99.90;;;;;;4990088;28;20517;-72
2023/01/08 11:08:50;;;;;;;31.90;1.10;;;10.10;99.90;;;;;;4992205;28;20488;-71
2023/01/08 11:11:16;;;;;;;29.50;0.80;;;10.20;99.90;;;;;;4993730;28;20458;-72
2023/01/08 11:13:53;;;;;;;27.63;1.23;;;10.30;99.90;;;;;;4994798;28;20457;-72
2023/01/08 11:16:18;;;;;;;28.33;1.07;;;10.40;99.90;;;;;;4991592;28;20239;-71
2023/01/08 11:18:49;;;;;;;29.73;1.07;;;10.40;99.90;;;;;;4989632;28;21005;-73
2023/01/08 11:21:24;;;;;;;30.60;1.30;;;10.50;99.90;;;;;;4991519;28;20715;-72
2023/01/08 11:24:11;;;;;;;31.70;1.20;;;10.50;99.90;;;;;;4984882;28;20453;-72
2023/01/08 11:26:40;;;;;;;32.30;1.10;;;10.50;99.90;;;;;;4993634;28;20449;-72
2023/01/08 11:29:21;;;;;;;30.90;1.20;;;10.50;99.90;;;;;;4993970;28;20470;-72
2023/01/08 11:32:08;;;;;;;142.90;16.40;;;10.60;99.90;;;;;;4993564;28;20508;-72
2023/01/08 11:34:44;;;;;;;21.30;0.70;;;10.60;99.90;;;;;;4993752;28;20509;-71
2023/01/08 11:37:25;;;;;;;26.80;1.60;;;10.50;99.90;;;;;;4993094;28;20468;-71
2023/01/08 11:39:52;;;;;;;16.00;0.80;;;10.50;99.90;;;;;;4994242;28;20448;-72
2023/01/08 11:42:29;;;;;;;6.03;0.90;;;10.60;99.90;;;;;;4993217;28;21004;-72
2023/01/08 11:45:11;;;;;;;7.33;1.10;;;10.70;99.90;;;;;;4993399;28;20488;-72
2023/01/08 11:48:01;;;;;;;6.70;0.93;;;10.70;99.90;;;;;;4974347;28;20487;-72
2023/01/08 11:50:31;;;;;;;7.37;0.70;;;10.70;99.90;;;;;;4974420;28;20428;-72
2023/01/08 11:53:07;;;;;;;7.20;0.67;;;10.70;99.90;;;;;;4985357;28;20557;-73
2023/01/08 11:55:50;;;;;;;7.97;0.73;;;10.70;99.90;;;;;;4993577;28;20525;-73
2023/01/08 11:58:34;;;;;;;11.20;1.57;;;10.70;99.90;;;;;;4993385;28;20442;-73
2023/01/08 12:01:00;;;;;;;9.93;1.53;;;10.70;99.90;;;;;;4993514;28;20441;-73
2023/01/08 12:03:48;;;;;;;7.70;0.60;;;10.70;99.90;;;;;;4992743;28;20462;-73
2023/01/08 12:06:43;;;;;;;8.93;1.47;;;10.70;99.90;;;;;;4992597;28;20219;-73
2023/01/08 12:09:41;;;;;;;8.20;0.93;;;10.70;99.90;;;;;;4993239;28;20962;-73
2023/01/08 12:12:23;;;;;;;9.30;1.50;;;10.60;99.90;;;;;;4992447;28;20458;-72
2023/01/08 12:15:11;;;;;;;8.60;0.83;;;10.70;99.90;;;;;;4974233;28;20443;-73
2023/01/08 12:17:50;;;;;;;8.80;1.00;;;10.70;99.90;;;;;;4973854;28;21055;-73
2023/01/08 12:20:24;;;;;;;8.63;0.70;;;10.60;99.90;;;;;;4973682;28;20435;-71
2023/01/08 12:23:07;;;;;;;9.70;0.87;;;10.70;99.90;;;;;;4980013;28;20466;-71
2023/01/08 12:25:52;;;;;;;9.77;1.00;;;10.60;99.90;;;;;;4993062;28;20497;-71
2023/01/08 12:28:27;;;;;;;12.10;1.67;;;10.60;99.90;;;;;;4992627;28;20492;-70
2023/01/08 12:31:24;;;;;;;8.17;1.13;;;10.70;99.90;;;;;;4993164;28;20441;-70
2023/01/08 12:33:56;;;;;;;11.30;1.20;;;10.60;99.90;;;;;;4976755;28;20466;-72
2023/01/08 12:36:34;;;;;;;8.30;1.30;;;10.60;99.90;;;;;;4993921;28;20829;-70
2023/01/08 12:39:14;;;;;;;12.50;1.90;;;10.60;99.90;;;;;;4994023;28;20465;-70
2023/01/08 12:41:44;;;;;;;8.50;0.80;;;10.60;99.90;;;;;;4993174;28;20459;-71
2023/01/08 12:44:11;;;;;;;11.57;1.33;;;10.60;99.90;;;;;;4994319;28;20906;-71
2023/01/08 12:46:41;;;;;;;9.50;1.10;;;10.60;99.90;;;;;;4994146;28;20461;-71
2023/01/08 12:49:12;;;;;;;9.20;0.80;;;10.60;99.90;;;;;;4993132;28;20977;-72
2023/01/08 12:51:53;;;;;;;8.80;0.80;;;10.60;99.90;;;;;;4993375;28;20790;-71
2023/01/08 12:54:27;;;;;;;11.17;1.23;;;10.60;99.90;;;;;;4992810;28;20466;-71
2023/01/08 12:57:15;;;;;;;11.90;2.27;;;10.60;99.90;;;;;;4992917;28;20454;-71
2023/01/08 13:00:02;;;;;;;8.63;0.70;;;10.60;99.90;;;;;;4973671;28;20474;-73
2023/01/08 13:02:46;;;;;;;8.20;0.63;;;10.70;99.90;;;;;;4973796;28;21133;-73
2023/01/08 13:05:17;;;;;;;15.40;1.10;;;10.70;99.90;;;;;;4982372;28;20833;-72
2023/01/08 13:07:46;;;;;;;16.23;1.17;;;10.70;99.90;;;;;;4993001;28;20526;-72
2023/01/08 13:10:28;;;;;;;14.97;0.70;;;10.70;99.90;;;;;;4993013;28;20430;-72
2023/01/08 13:12:54;;;;;;;12.10;0.80;;;10.70;99.90;;;;;;4991662;28;20840;-73
2023/01/08 13:15:25;;;;;;;14.23;1.60;;;10.60;99.90;;;;;;4992466;28;21325;-73
2023/01/08 13:17:53;;;;;;;68.57;49.40;;;10.60;99.90;;;;;;4992306;28;20446;-73
2023/01/08 13:20:22;;;;;;;53.70;4.00;;;10.60;99.90;;;;;;4992634;28;20461;-71
2023/01/08 13:23:22;;;;;;;9.40;0.90;;;10.50;99.90;;;;;;4991971;28;20488;-72
2023/01/08 13:25:53;;;;;;;9.30;0.70;;;10.60;99.90;;;;;;4992228;28;20443;-70
2023/01/08 13:28:34;;;;;;;15.23;0.70;;;10.60;99.90;;;;;;4991449;28;20477;-71
2023/01/08 13:31:18;;;;;;;17.97;0.80;;;10.60;99.90;;;;;;4991499;28;20466;-71
2023/01/08 13:33:46;;;;;;;14.67;1.20;;;10.60;99.90;;;;;;4991138;28;21070;-71
2023/01/08 13:36:12;;;;;;;13.30;1.00;;;10.70;99.90;;;;;;4985670;28;20460;-71
2023/01/08 13:38:38;;;;;;;12.10;1.00;;;10.70;99.90;;;;;;4991319;28;20430;-71
2023/01/08 13:41:05;;;;;;;9.60;0.80;;;10.70;99.90;;;;;;4982172;28;20214;-69
2023/01/08 13:43:37;;;;;;;10.83;0.97;;;10.70;99.90;;;;;;4970837;28;21006;-72
2023/01/08 13:46:02;;;;;;;12.77;1.70;;;10.80;99.90;;;;;;4983880;28;20463;-71
2023/01/08 13:48:34;;;;;;;10.43;1.07;;;10.80;99.90;;;;;;4991007;28;20486;-71
2023/01/08 13:51:00;;;;;;;11.03;0.77;;;10.80;99.90;;;;;;4990694;28;20568;-71
2023/01/08 13:53:25;;;;;;;37.83;1.63;;;11.00;99.90;;;;;;4990921;28;20453;-70
2023/01/08 13:56:05;;;;;;;61.00;1.90;;;11.10;99.90;;;;;;4987874;28;20714;-71
2023/01/08 13:58:45;;;;;;;62.57;1.97;;;11.20;99.90;;;;;;4991318;28;20298;-71
2023/01/08 14:01:12;;;;;;;63.07;2.93;;;11.20;99.90;;;;;;4982623;28;20463;-70
2023/01/08 14:03:44;;;;;;;73.33;10.57;;;11.30;99.90;;;;;;4972106;28;20463;-71
2023/01/08 14:06:15;;;;;;;46.53;1.67;;;11.30;99.90;;;;;;4987824;28;20998;-71
2023/01/08 14:09:01;;;;;;;32.57;0.70;;;11.40;99.90;;;;;;4991232;28;20474;-71
2023/01/08 14:11:40;;;;;;;33.10;1.00;;;11.50;99.90;;;;;;4990227;28;20565;-71
2023/01/08 14:14:11;;;;;;;27.37;0.77;;;11.60;99.90;;;;;;4991042;28;20453;-71
2023/01/08 14:16:37;;;;;;;29.80;0.70;;;11.70;99.90;;;;;;4973064;28;20857;-71
2023/01/08 14:19:04;;;;;;;31.40;0.70;;;11.80;99.90;;;;;;4990696;28;20461;-71
2023/01/08 14:21:29;;;;;;;32.60;1.00;;;11.90;99.90;;;;;;4990681;28;20320;-71
2023/01/08 14:23:55;;;;;;;34.20;0.90;;;11.70;99.90;;;;;;4990503;28;20961;-70